Nearby METAR Reports

 

KDPA - Chicago/Dupage, Illinois, USA
Distance from station: ESE 9mi, 15km
Updated: Tue, 22-May-2018 5:52am CDT
Fog, Overcast
Fog, Overcast
 Wind from calm
Wind: Calm
Temperature: 57°F , 14°C
Dew Point: 57°F , 14°C
Humidity: 100%
Barometer: 29.98 inHg , 1015.2 hPa
Summary: Fog
Clouds: Overcast
Visibility: less than 1/4 mile , 2 km
Cloud details: Overcast 200 ft
2018/05/22 10:52 KDPA 221052Z 00000KT M1/4SM R02L/1200FT FG VV002 14/14 A2998 RMK AO2 TWR VIS 1/4 SLP153 T01390139
KARR - Chicago/Aurora, Illinois, USA
Distance from station: SSW 14mi, 22km
Updated: Tue, 22-May-2018 6:28am CDT
Mist, Overcast
Mist, Overcast
 Wind from calm
Wind: Calm
Temperature: 61°F , 16°C
Dew Point: 61°F , 16°C
Humidity: 100%
Barometer: 29.99 inHg , 1015.6 hPa
Summary: Mist
Clouds: Overcast
Visibility: 2 miles , 3 km
Cloud details: Overcast 1900 ft
2018/05/22 11:28 KARR 221128Z AUTO 00000KT 2SM BR OVC019 16/16 A2999 RMK AO2 T01560156
 
KDKB - De Kalb, Illinois, USA
Distance from station: W 14mi, 23km
Updated: Tue, 22-May-2018 6:15am CDT
Mist, Overcast
Mist, Overcast
 Wind from WNW
Wind: WNW 5 mph , 7 km/h
Temperature: 59°F , 15°C
Dew Point: 59°F , 15°C
Humidity: 100%
Barometer: 30.01 inHg , 1016.3 hPa
Summary: Mist
Clouds: Overcast
Visibility: 1 3/4 miles , 5 km
Cloud details: Partly cloudy 700 ft
Partly cloudy 1200 ft
Overcast 2100 ft
2018/05/22 11:15 KDKB 221115Z AUTO 29004KT 1 3/4SM BR SCT007 SCT012 OVC021 15/15 A3001 RMK AO2 T01490149
KORD - Chicago O'hare, Illinois, USA
Distance from station: E 25mi, 41km
Updated: Tue, 22-May-2018 6:00am CDT
Fog, Overcast
Fog, Overcast
 Wind from N
Wind: N 5 mph , 7 km/h
Temperature: 55°F , 13°C
Dew Point: 54°F , 12°C
Humidity: 94%
Barometer: 29.98 inHg , 1015.2 hPa
Summary: Fog
Clouds: Overcast
Visibility: 1/2 mile , 2 km
Cloud details: Overcast 200 ft
2018/05/22 11:00 KORD 221100Z 01004KT 1/2SM R10L/3500V4500FT FG VV002 13/12 A2998 RMK AO2 T01280122
 
KPWK - Palwaukee, Illinois, USA
Distance from station: ENE 29mi, 47km
Updated: Wed, 31-Dec-1969 6:00pm CST
NOT Current
unable to load KPWK data RC=404 Not Found
unable to load KPWK data RC=404 Not Found
 
KLOT - Romeoville/Chi, Illinois, USA
Distance from station: SE 30mi, 48km
Updated: Tue, 22-May-2018 6:15am CDT
Mist, Overcast
Mist, Overcast
 Wind from calm
Wind: Calm
Temperature: 59°F , 15°C
Dew Point: 59°F , 15°C
Humidity: 100%
Barometer: 30.00 inHg , 1015.9 hPa
Summary: Mist
Clouds: Overcast
Visibility: 3/4 mile , 5 km
Cloud details: Overcast 200 ft
2018/05/22 11:15 KLOT 221115Z AUTO 00000KT 3/4SM BR OVC002 15/15 A3000 RMK AO2 T01500150
 
KJOT - Joliet, Illinois, USA
Distance from station: SSE 33mi, 53km
Updated: Tue, 22-May-2018 6:15am CDT
Fog, Overcast
Fog, Overcast
 Wind from calm
Wind: Calm
Temperature: 61°F , 16°C
Dew Point: 61°F , 16°C
Humidity: 100%
Barometer: 30.00 inHg , 1015.9 hPa
Summary: Fog
Clouds: Overcast
Visibility: 1/2 mile , 2 km
Cloud details: Overcast 300 ft
2018/05/22 11:15 KJOT 221115Z AUTO 00000KT 1/2SM FG OVC003 16/16 A3000 RMK AO2 T01640164
KRPJ - Rochelle/Koritz, Illinois, USA
Distance from station: W 34mi, 55km
Updated: Tue, 22-May-2018 6:15am CDT
Mist, Overcast
Mist, Overcast
 Wind from calm
Wind: Calm
Temperature: 59°F , 15°C
Dew Point: 59°F , 15°C
Humidity: 100%
Barometer: 30.01 inHg , 1016.3 hPa
Summary: Mist
Clouds: Overcast
Visibility: 1 3/4 miles , 5 km
Cloud details: Overcast 300 ft
2018/05/22 11:15 KRPJ 221115Z AUTO 00000KT 1 3/4SM BR OVC003 15/15 A3001 RMK AO2 T01510151
 
KC09 - Morris-Washburn, Illinois, USA
Distance from station: S 36mi, 59km
Updated: Tue, 22-May-2018 6:15am CDT
Fog, Overcast
Fog, Overcast
 Wind from calm
Wind: Calm
Temperature: 61°F , 16°C
Dew Point: 61°F , 16°C
Humidity: 100%
Barometer: 29.99 inHg , 1015.6 hPa
Summary: Fog
Clouds: Overcast
Visibility: less than 1/4 mile , 2 km
Cloud details: Overcast 200 ft
2018/05/22 11:15 KC09 221115Z AUTO 00000KT M1/4SM FG OVC002 16/16 A2999 RMK AO2 T01610159
KMDW - Chicago, Illinois, USA
Distance from station: ESE 37mi, 59km
Updated: Tue, 22-May-2018 6:28am CDT
Fog, Overcast
Fog, Overcast
 Wind from N
Wind: N 5 mph , 7 km/h
Temperature: 57°F , 14°C
Dew Point: 55°F , 13°C
Humidity: 94%
Barometer: 30.00 inHg , 1015.9 hPa
Summary: Fog
Clouds: Overcast
Visibility: 1/2 mile , 2 km
Cloud details: Overcast 200 ft
2018/05/22 11:28 KMDW 221128Z 36004KT 1/2SM R31C/2600VP6000FT FG OVC002 14/13 A3000 RMK AO2 T01390133
 
KRFD - Rockford, Illinois, USA
Distance from station: WNW 38mi, 62km
Updated: Tue, 22-May-2018 6:20am CDT
Mist, Overcast
Mist, Overcast
 Wind from N
Wind: N 7 mph , 11 km/h
Temperature: 57°F , 14°C
Dew Point: 55°F , 13°C
Humidity: 94%
Barometer: 30.01 inHg , 1016.3 hPa
Summary: Mist
Clouds: Overcast
Visibility: 2 miles , 3 km
Cloud details: Overcast 500 ft
2018/05/22 11:20 KRFD 221120Z 01006KT 2SM BR OVC005 14/13 A3001 RMK AO2 CIG 003V007 T01390133
KUGN - Waukegan, Illinois, USA
Distance from station: NE 42mi, 68km
Updated: Tue, 22-May-2018 6:06am CDT
Mist, Overcast
Mist, Overcast
 Wind from calm
Wind: Calm
Temperature: 50°F , 10°C
Dew Point: 50°F , 10°C
Humidity: 100%
Barometer: 30.00 inHg , 1015.9 hPa
Summary: Mist
Clouds: Overcast
Visibility: 3/4 mile , 5 km
Cloud details: Overcast 200 ft
2018/05/22 11:06 KUGN 221106Z 00000KT 3/4SM BR VV002 10/10 A3000 RMK AO2 T01000100
 
KBUU - Burlington, Wisconsin, USA
Distance from station: N 50mi, 81km
Updated: Tue, 22-May-2018 6:15am CDT
Mist, Mostly cloudy
Mist, Mostly cloudy
 Wind from calm
Wind: Calm
Temperature: 50°F , 10°C
Dew Point: 50°F , 10°C
Humidity: 100%
Barometer: 30.01 inHg , 1016.3 hPa
Summary: Mist
Clouds: Mostly cloudy
Visibility: 1 1/4 miles , 2 km
Cloud details: Mostly cloudy 200 ft
Mostly cloudy 1400 ft
2018/05/22 11:15 KBUU 221115Z AUTO 00000KT 1 1/4SM BR BKN002 BKN014 10/10 A3001 RMK AO2 T01000097